TGPYGCTS

Guest
Details From TGPY - Point Salines Intl
To GCTS - Tenerife Sur
Flight Number -
Tags Generated
Created
Modified
Stats Distance 2,708 nm / 5,016 km
Max Altitude 0 ft / 0 m
Waypoints 3
Social Downloads 0
Likes 0
Share VATSIM

Download

Looking for another format? Having issues loading an existing format? Contact us
Advertisement - Login to hide

Notes

Generated

Route

TGPY TFS GCTS

ID Type Via Altitude Latitude Longitude Leg Dist Tot Dist Heading (true) Name
O TGPY APT - 0 ft / 0 m 12.00430˚ -61.79881˚ - 0 nm - -
TFS VOR - 0 ft / 0 m 28.00245˚ -16.68793˚ 2702 nm 2702 nm 62° / 79° TENERIFE SUR VOR-DME
O GCTS APT - 0 ft / 0 m 28.03920˚ -16.58764˚ 5 nm 2708 nm 67° / 67° -

Altitude Profile

Advertisement - Login to hide

Weather


0- 5 10 15 20 25 30 35+ Temperature / ° C

Clouds and Precipitation
Forecast for 2017-12-18 12:00 UTC. Updated 2 hours ago

Ground ~20,000 ft ~40,000 ft Winds

TGPY

Details ICAO TGPY (GND)
Name Grenada/Bishop International
Region Grenada
Timezone America/Grenada (UTC-4.0)
Stats Elevation 41 ft / 12 m (AMSL)
Location 12.004247° -61.786192°
Runways 1
Magnetic Variation 14.800° W

METAR

TGPY 181000Z 00000KT 9999 FEW016 BKN034 24/23 Q1013 NOSIG

Decode

TAF

Not found

Departure Runways

ID Width Length Bearing (true) Bearing (mag) Surface Threshold Offset Overrun Length
10 148 ft / 45 m 9,012 ft / 2,747 m 90.26° 105.06° Asphalt 0 ft / 0 m 0 ft / 0 m
28 148 ft / 45 m 9,012 ft / 2,747 m 270.26° 285.06° Asphalt 0 ft / 0 m 0 ft / 0 m

GCTS

Details ICAO GCTS (TFS)
Name Tenerife Sur
Region Canary Islands
Timezone Atlantic/Canary (UTC+0.0)
Stats Elevation 209 ft / 64 m (AMSL)
Location 28.044475° -16.572488°
Runways 1
Magnetic Variation 5.116° W

METAR

GCTS 181030Z 07022KT CAVOK 20/10 Q1025 NOSIG

Decode

TAF

TAF GCTS 180800Z 1809/1909 07023KT 9999 SCT035 TX23/1814Z TN16/1906Z PROB40 TEMPO 1809/1815 07023G33KT BECMG 1822/1824 06010KT

Decode

Destination Runways

ID Width Length Bearing (true) Bearing (mag) Surface Threshold Offset Overrun Length
08 148 ft / 45 m 10,489 ft / 3,197 m 68.47° 73.59° Asphalt 0 ft / 0 m 0 ft / 0 m
26 148 ft / 45 m 10,489 ft / 3,197 m 248.49° 253.61° Asphalt 0 ft / 0 m 0 ft / 0 m

Approach Navaids

Runway Type Ident Frequency Range Bearing (true) Bearing (mag) Slope Elevation
08 Localiser TRS 109.70 MHz 18 nm / 33 km 68.49° 73.61° - 187 ft / 57 m (AMSL)
08 Glidescope TRS 109.70 MHz 10 nm / 19 km 68.48° 73.60° 3.00° 209 ft / 64 m (AMSL)
26 Localiser ISUR 110.90 MHz 18 nm / 33 km 248.52° 253.63° - 209 ft / 64 m (AMSL)
26 Glidescope ISUR 110.90 MHz 10 nm / 19 km 248.48° 253.60° 3.00° 236 ft / 72 m (AMSL)
26 DME ISUR 110.90 MHz 18 nm / 33 km - - - 236 ft / 72 m (AMSL)